createdAt,value
2022-10-28T00:00:34.755Z,1044.74
2022-10-28T00:01:34.809Z,1044.71
2022-10-28T00:02:34.801Z,1044.46
2022-10-28T00:03:37.508Z,1044.41
2022-10-28T00:04:34.758Z,1044.27
2022-10-28T00:05:34.761Z,1044.1
2022-10-28T00:06:34.765Z,1043.84
2022-10-28T00:07:34.766Z,1043.32
2022-10-28T00:08:34.770Z,1043.29
2022-10-28T00:09:34.766Z,1042.94
2022-10-28T00:10:34.767Z,1042.94
2022-10-28T00:11:34.773Z,1043
2022-10-28T00:12:34.773Z,1043.08
2022-10-28T00:13:34.773Z,1042.66
2022-10-28T00:14:37.948Z,1042.48
2022-10-28T00:15:34.777Z,1042.36
2022-10-28T00:16:34.774Z,1042.16
2022-10-28T00:17:34.780Z,1042.21
2022-10-28T00:18:34.783Z,1042.28
2022-10-28T00:19:34.784Z,1042.15
2022-10-28T00:20:34.787Z,1042.31
2022-10-28T00:21:34.793Z,1042.06
2022-10-28T00:22:34.787Z,1041.93
2022-10-28T00:23:34.790Z,1041.91
2022-10-28T00:24:34.797Z,1041.5
2022-10-28T00:25:37.611Z,1041.23
2022-10-28T00:26:34.795Z,1041
2022-10-28T00:27:34.793Z,1040.85
2022-10-28T00:28:34.798Z,1040.68
2022-10-28T00:29:34.800Z,1040.45
2022-10-28T00:30:34.832Z,1040.3
2022-10-28T00:31:34.826Z,1040.07
2022-10-28T00:32:34.806Z,1040.28
2022-10-28T00:33:34.808Z,1040.46
2022-10-28T00:34:34.812Z,1040.81
2022-10-28T00:35:34.808Z,1040.93
2022-10-28T00:36:38.383Z,1040.99
2022-10-28T00:37:34.818Z,1041.39
2022-10-28T00:38:34.832Z,1041.5
2022-10-28T00:39:34.818Z,1041.56
2022-10-28T00:40:34.821Z,1040.89
2022-10-28T00:41:34.821Z,1041.06
2022-10-28T00:42:34.821Z,1040.89
2022-10-28T00:43:34.826Z,1040.95
2022-10-28T00:44:34.826Z,1040.98
2022-10-28T00:45:34.828Z,1041.02
2022-10-28T00:46:34.897Z,1041.04
2022-10-28T00:47:34.831Z,1041.64
2022-10-28T00:48:34.834Z,1041.87
2022-10-28T00:49:34.834Z,1042.4
2022-10-28T00:50:34.834Z,1042.81
2022-10-28T00:51:34.839Z,1043.18
2022-10-28T00:52:34.838Z,1043.74
2022-10-28T00:53:34.851Z,1044.31
2022-10-28T00:54:34.844Z,1044.91
2022-10-28T00:55:34.841Z,1045.53
2022-10-28T00:56:34.847Z,1045.86
2022-10-28T00:57:34.851Z,1045.73
2022-10-28T00:58:34.851Z,1045.74
2022-10-28T00:59:34.848Z,1045.86
2022-10-28T01:00:34.853Z,1045.8
2022-10-28T01:01:34.954Z,1045.73
2022-10-28T01:02:34.981Z,1046.04
2022-10-28T01:03:34.855Z,1045.94
2022-10-28T01:04:34.859Z,1045.49
2022-10-28T01:05:34.861Z,1045.17
2022-10-28T01:06:34.860Z,1045.4
2022-10-28T01:07:34.866Z,1044.79
2022-10-28T01:08:34.862Z,1044.87
2022-10-28T01:09:34.865Z,1044.57
2022-10-28T01:10:34.868Z,1044.85
2022-10-28T01:11:34.871Z,1044.44
2022-10-28T01:12:34.871Z,1044.39
2022-10-28T01:13:34.880Z,1044.16
2022-10-28T01:14:34.875Z,1043.6
2022-10-28T01:15:34.876Z,1043.25
2022-10-28T01:16:34.875Z,1043.31
2022-10-28T01:17:34.882Z,1043.07
2022-10-28T01:18:34.904Z,1042.75
2022-10-28T01:19:37.866Z,1042.58
2022-10-28T01:20:36.169Z,1041.84
2022-10-28T01:21:34.890Z,1041.12
2022-10-28T01:22:34.890Z,1041.34
2022-10-28T01:23:34.891Z,1040.74
2022-10-28T01:24:34.930Z,1040.31
2022-10-28T01:25:34.889Z,1040.3
2022-10-28T01:26:34.894Z,1040.26
2022-10-28T01:27:34.897Z,1040.7
2022-10-28T01:28:34.899Z,1040.62
2022-10-28T01:29:34.899Z,1040.88
2022-10-28T01:30:34.904Z,1040.69
2022-10-28T01:31:34.915Z,1040.83
2022-10-28T01:32:34.906Z,1040.67
2022-10-28T01:33:34.908Z,1040.36
2022-10-28T01:34:34.930Z,1040.45
2022-10-28T01:35:34.911Z,1040.42
2022-10-28T01:36:34.912Z,1040.46
2022-10-28T01:37:34.910Z,1040.23
2022-10-28T01:38:34.914Z,1040.24
2022-10-28T01:39:34.917Z,1040.16
2022-10-28T01:40:34.916Z,1039.63
2022-10-28T01:41:34.922Z,1039.81
2022-10-28T01:42:34.922Z,1039.46
2022-10-28T01:43:34.922Z,1039.56
2022-10-28T01:44:34.921Z,1039.34
2022-10-28T01:45:34.925Z,1039.07
2022-10-28T01:46:34.929Z,1038.75
2022-10-28T01:47:34.931Z,1038.42
2022-10-28T01:48:35.036Z,1038.35
2022-10-28T01:49:34.950Z,1037.91
2022-10-28T01:50:34.960Z,1037.81
2022-10-28T01:51:34.933Z,1037.71
2022-10-28T01:52:34.938Z,1037.59
2022-10-28T01:53:34.943Z,1037.23
2022-10-28T01:54:34.940Z,1037.05
2022-10-28T01:55:34.946Z,1036.78
2022-10-28T01:56:34.946Z,1036.78
2022-10-28T01:57:34.944Z,1036.32
2022-10-28T01:58:34.954Z,1036.26
2022-10-28T01:59:34.952Z,1035.99
2022-10-28T02:00:34.976Z,1035.39
2022-10-28T02:01:35.236Z,1034.81
2022-10-28T02:02:34.957Z,1034.83
2022-10-28T02:03:34.959Z,1034.78
2022-10-28T02:04:34.957Z,1034.6
2022-10-28T02:05:34.959Z,1034.6
2022-10-28T02:06:34.990Z,1034.36
2022-10-28T02:07:34.987Z,1034.06
2022-10-28T02:08:34.968Z,1033.62
2022-10-28T02:09:34.989Z,1033.44
2022-10-28T02:10:34.967Z,1032.85
2022-10-28T02:11:34.967Z,1032.45
2022-10-28T02:12:34.995Z,1031.85
2022-10-28T02:13:34.973Z,1031.08
2022-10-28T02:14:34.978Z,1031.01
2022-10-28T02:15:34.977Z,1030.7
2022-10-28T02:16:34.977Z,1030.5
2022-10-28T02:17:34.999Z,1030.57
2022-10-28T02:18:34.978Z,1030.93
2022-10-28T02:19:34.987Z,1031.03
2022-10-28T02:20:34.991Z,1031.04
2022-10-28T02:21:34.989Z,1031.48
2022-10-28T02:22:35.031Z,1031.77
2022-10-28T02:23:34.988Z,1031.89
2022-10-28T02:24:34.989Z,1032.38
2022-10-28T02:25:34.989Z,1032.37
2022-10-28T02:26:34.992Z,1032.28
2022-10-28T02:27:35.024Z,1032.48
2022-10-28T02:28:34.996Z,1032.27
2022-10-28T02:29:34.997Z,1032.27
2022-10-28T02:30:38.164Z,1031.91
2022-10-28T02:31:35.004Z,1031.86
2022-10-28T02:32:35.035Z,1031.93
2022-10-28T02:33:35.008Z,1031.97
2022-10-28T02:34:35.008Z,1031.98
2022-10-28T02:35:35.010Z,1031.55
2022-10-28T02:36:35.010Z,1031.31
2022-10-28T02:37:35.074Z,1031.08
2022-10-28T02:38:35.046Z,1030.52
2022-10-28T02:39:35.014Z,1030.49
2022-10-28T02:40:35.017Z,1030.56
2022-10-28T02:41:37.782Z,1030.79
2022-10-28T02:42:35.045Z,1031.08
2022-10-28T02:43:35.023Z,1031.61
2022-10-28T02:44:35.030Z,1031.83
2022-10-28T02:45:35.027Z,1032.01
2022-10-28T02:46:35.029Z,1032.5
2022-10-28T02:47:35.055Z,1032.96
2022-10-28T02:48:35.035Z,1033.02
2022-10-28T02:49:35.036Z,1033.18
2022-10-28T02:50:35.042Z,1033.08
2022-10-28T02:51:35.037Z,1033.4
2022-10-28T02:52:36.471Z,1033.23
2022-10-28T02:53:35.038Z,1033.34
2022-10-28T02:54:35.065Z,1033.54
2022-10-28T02:55:35.048Z,1033.52
2022-10-28T02:56:35.041Z,1033.54
2022-10-28T02:57:35.046Z,1033.39
2022-10-28T02:58:35.049Z,1033.08
2022-10-28T02:59:35.046Z,1032.89
2022-10-28T03:00:35.051Z,1032.4
2022-10-28T03:01:35.181Z,1032.69
2022-10-28T03:02:35.071Z,1032.22
2022-10-28T03:03:38.163Z,1032.34
2022-10-28T03:04:35.057Z,1032.49
2022-10-28T03:05:35.057Z,1032.52
2022-10-28T03:06:35.070Z,1032.55
2022-10-28T03:07:35.066Z,1032.6
2022-10-28T03:08:38.040Z,1032.37
2022-10-28T03:09:35.069Z,1032.46
2022-10-28T03:10:35.096Z,1032.25
2022-10-28T03:11:35.072Z,1032.45
2022-10-28T03:12:35.120Z,1032.16
2022-10-28T03:13:35.073Z,1031.93
2022-10-28T03:14:38.176Z,1031.6
2022-10-28T03:15:35.079Z,1031.31
2022-10-28T03:16:35.079Z,1031.17
2022-10-28T03:17:35.087Z,1031.02
2022-10-28T03:18:35.083Z,1030.8
2022-10-28T03:19:35.087Z,1030.72
2022-10-28T03:20:35.081Z,1030.82
2022-10-28T03:21:35.136Z,1030.64
2022-10-28T03:22:35.084Z,1030.24
2022-10-28T03:23:35.093Z,1030.53
2022-10-28T03:24:35.094Z,1030.63
2022-10-28T03:25:35.092Z,1030.61
2022-10-28T03:26:35.118Z,1030.44
2022-10-28T03:27:35.096Z,1030.33
2022-10-28T03:28:35.104Z,1030.46
2022-10-28T03:29:35.110Z,1030.17
2022-10-28T03:30:35.104Z,1030.45
2022-10-28T03:31:35.118Z,1030.46
2022-10-28T03:32:35.107Z,1030.57
2022-10-28T03:33:35.104Z,1030.27
2022-10-28T03:34:35.109Z,1030.26
2022-10-28T03:35:35.112Z,1030.51
2022-10-28T03:36:35.110Z,1030.22
2022-10-28T03:37:35.111Z,1030.48
2022-10-28T03:38:35.123Z,1030.39
2022-10-28T03:39:35.112Z,1030.42
2022-10-28T03:40:35.119Z,1030.22
2022-10-28T03:41:35.118Z,1029.92
2022-10-28T03:42:36.422Z,1029.83
2022-10-28T03:43:35.120Z,1029.09
2022-10-28T03:44:35.124Z,1029.03
2022-10-28T03:45:35.128Z,1028.6
2022-10-28T03:46:38.025Z,1028.17
2022-10-28T03:47:35.160Z,1027.99
2022-10-28T03:48:35.134Z,1028.16
2022-10-28T03:49:35.132Z,1027.51
2022-10-28T03:50:35.142Z,1027.04
2022-10-28T03:51:35.136Z,1026.22
2022-10-28T03:52:35.136Z,1025.72
2022-10-28T03:53:35.145Z,1024.62
2022-10-28T03:54:35.140Z,1023.73
2022-10-28T03:55:35.142Z,1022.7
2022-10-28T03:56:35.141Z,1022.08
2022-10-28T03:57:35.146Z,1021.33
2022-10-28T03:58:38.768Z,1020.91
2022-10-28T03:59:35.148Z,1020.92
2022-10-28T04:00:35.153Z,1020.86
2022-10-28T04:01:35.271Z,1020.52
2022-10-28T04:02:35.183Z,1020.4
2022-10-28T04:03:35.174Z,1020.5
2022-10-28T04:04:35.160Z,1020.36
2022-10-28T04:05:35.159Z,1020.69
2022-10-28T04:06:35.160Z,1021
2022-10-28T04:07:35.163Z,1020.98
2022-10-28T04:08:35.189Z,1021.2
2022-10-28T04:09:35.163Z,1021.51
2022-10-28T04:10:35.166Z,1021.61
2022-10-28T04:11:35.166Z,1021.37
2022-10-28T04:12:35.170Z,1022.08
2022-10-28T04:13:35.258Z,1021.83
2022-10-28T04:14:35.198Z,1021.82
2022-10-28T04:15:35.173Z,1021.94
2022-10-28T04:16:35.177Z,1021.98
2022-10-28T04:17:35.180Z,1021.82
2022-10-28T04:18:35.203Z,1021.9
2022-10-28T04:19:35.183Z,1022.32
2022-10-28T04:20:35.195Z,1022.1
2022-10-28T04:21:35.186Z,1022.65
2022-10-28T04:22:35.185Z,1022.9
2022-10-28T04:23:35.209Z,1023.1
2022-10-28T04:24:35.192Z,1023.23
2022-10-28T04:25:35.190Z,1023.4
2022-10-28T04:26:35.193Z,1023.36
2022-10-28T04:27:35.200Z,1023.06
2022-10-28T04:28:35.217Z,1023.11
2022-10-28T04:29:35.198Z,1022.75
2022-10-28T04:30:35.226Z,1022.71
2022-10-28T04:31:35.204Z,1022.76
2022-10-28T04:32:35.201Z,1022.34
2022-10-28T04:33:35.231Z,1022.17
2022-10-28T04:34:35.207Z,1022.56
2022-10-28T04:35:35.205Z,1022.47
2022-10-28T04:36:35.214Z,1023.04
2022-10-28T04:37:35.214Z,1022.72
2022-10-28T04:38:35.251Z,1023.01
2022-10-28T04:39:35.213Z,1023.46
2022-10-28T04:40:35.218Z,1023.73
2022-10-28T04:41:35.217Z,1023.75
2022-10-28T04:42:35.219Z,1024.1
2022-10-28T04:43:35.243Z,1024.03
2022-10-28T04:44:35.223Z,1023.96
2022-10-28T04:45:35.224Z,1024.05
2022-10-28T04:46:35.257Z,1023.85
2022-10-28T04:47:35.227Z,1024.01
2022-10-28T04:48:35.250Z,1024.37
2022-10-28T04:49:35.522Z,1024.11
2022-10-28T04:50:35.233Z,1024.37
2022-10-28T04:51:35.276Z,1024.23
2022-10-28T04:52:35.236Z,1024.71
2022-10-28T04:53:35.262Z,1024.85
2022-10-28T04:54:35.247Z,1025.13
2022-10-28T04:55:35.242Z,1025.52
2022-10-28T04:56:35.243Z,1025.74
2022-10-28T04:57:35.387Z,1026.12
2022-10-28T04:58:35.267Z,1026.26
2022-10-28T04:59:35.249Z,1026.47
2022-10-28T05:00:35.250Z,1026.28
2022-10-28T05:01:35.367Z,1026.11
2022-10-28T05:02:35.275Z,1025.79
2022-10-28T05:03:35.282Z,1024.96
2022-10-28T05:04:35.255Z,1024.39
2022-10-28T05:05:35.254Z,1023.65
2022-10-28T05:06:35.275Z,1022.99
2022-10-28T05:07:35.260Z,1022.32
2022-10-28T05:08:36.559Z,1021.9
2022-10-28T05:09:35.261Z,1021.54
2022-10-28T05:10:35.264Z,1020.98
2022-10-28T05:11:35.269Z,1021.35
2022-10-28T05:12:35.274Z,1021.69
2022-10-28T05:13:35.269Z,1021.82
2022-10-28T05:14:35.274Z,1022.05
2022-10-28T05:15:35.270Z,1022.21
2022-10-28T05:16:35.287Z,1022.25
2022-10-28T05:17:35.278Z,1022.05
2022-10-28T05:18:35.484Z,1021.81
2022-10-28T05:19:38.178Z,1021.78
2022-10-28T05:20:35.279Z,1021.94
2022-10-28T05:21:35.282Z,1021.85
2022-10-28T05:22:35.283Z,1022.22
2022-10-28T05:23:35.288Z,1022.38
2022-10-28T05:24:35.289Z,1022.48
2022-10-28T05:25:35.287Z,1023.34
2022-10-28T05:26:35.292Z,1023.63
2022-10-28T05:27:35.296Z,1024.38
2022-10-28T05:28:35.294Z,1024.43
2022-10-28T05:29:35.299Z,1024.83
2022-10-28T05:30:38.339Z,1025.8
2022-10-28T05:31:35.321Z,1026.27
2022-10-28T05:32:35.316Z,1026.84
2022-10-28T05:33:35.312Z,1027.21
2022-10-28T05:34:35.328Z,1027.79
2022-10-28T05:35:35.336Z,1027.84
2022-10-28T05:36:35.304Z,1028.32
2022-10-28T05:37:35.311Z,1028.44
2022-10-28T05:38:35.319Z,1028.47
2022-10-28T05:39:35.339Z,1028.28
2022-10-28T05:40:35.311Z,1028.41
2022-10-28T05:41:38.910Z,1028.47
2022-10-28T05:42:35.318Z,1028.57
2022-10-28T05:43:35.316Z,1028.45
2022-10-28T05:44:35.321Z,1028.43
2022-10-28T05:45:35.328Z,1028.19
2022-10-28T05:46:35.341Z,1028.11
2022-10-28T05:47:36.532Z,1028.51
2022-10-28T05:48:35.327Z,1028.36
2022-10-28T05:49:35.328Z,1028.89
2022-10-28T05:50:35.357Z,1029.31
2022-10-28T05:51:35.332Z,1029.66
2022-10-28T05:52:35.336Z,1030.05
2022-10-28T05:53:35.362Z,1030.17
2022-10-28T05:54:35.334Z,1030.32
2022-10-28T05:55:35.339Z,1030.3
2022-10-28T05:56:35.342Z,1030.34
2022-10-28T05:57:35.341Z,1030.91
2022-10-28T05:58:35.348Z,1031.36
2022-10-28T05:59:35.346Z,1031.35
2022-10-28T06:00:35.345Z,1032.05
2022-10-28T06:01:37.864Z,1031.84
2022-10-28T06:02:35.350Z,1032.22
2022-10-28T06:03:35.406Z,1032.44
2022-10-28T06:04:35.362Z,1032.73
2022-10-28T06:05:35.354Z,1033.24
2022-10-28T06:06:35.381Z,1033.65
2022-10-28T06:07:35.356Z,1034.06
2022-10-28T06:08:35.359Z,1034.88
2022-10-28T06:09:35.359Z,1035.61
2022-10-28T06:10:35.363Z,1035.81
2022-10-28T06:11:33.830Z,1036.54
2022-10-28T06:13:36.597Z,1037.72
2022-10-28T06:14:33.844Z,1038.52
2022-10-28T06:15:33.839Z,1039.05
2022-10-28T06:16:33.852Z,1039.6
2022-10-28T06:17:33.847Z,1040.22
2022-10-28T06:18:33.850Z,1040.99
2022-10-28T06:19:33.851Z,1041.23
2022-10-28T06:20:33.852Z,1041.99
2022-10-28T06:21:33.853Z,1042.45
2022-10-28T06:22:33.882Z,1043.16
2022-10-28T06:23:33.862Z,1043.67
2022-10-28T06:24:36.719Z,1044.05
2022-10-28T06:25:33.866Z,1045.14
2022-10-28T06:26:33.869Z,1045.31
2022-10-28T06:27:33.871Z,1046.09
2022-10-28T06:28:33.892Z,1046.32
2022-10-28T06:29:33.904Z,1046.84
2022-10-28T06:30:33.876Z,1047.34
2022-10-28T06:31:33.894Z,1047.68
2022-10-28T06:32:33.886Z,1047.97
2022-10-28T06:33:33.885Z,1048.54
2022-10-28T06:34:33.890Z,1048.84
2022-10-28T06:35:33.887Z,1049.41
2022-10-28T06:36:33.893Z,1049.47
2022-10-28T06:37:33.896Z,1049.85
2022-10-28T06:38:33.921Z,1049.82
2022-10-28T06:39:33.904Z,1049.99
2022-10-28T06:40:33.914Z,1050.12
2022-10-28T06:41:33.906Z,1050.47
2022-10-28T06:42:33.908Z,1050.75
2022-10-28T06:43:33.943Z,1050.89
2022-10-28T06:44:33.917Z,1051.3
2022-10-28T06:45:33.915Z,1051.21
2022-10-28T06:46:35.436Z,1051.65
2022-10-28T06:47:37.804Z,1051.75
2022-10-28T06:48:35.439Z,1052.55
2022-10-28T06:49:35.441Z,1052.58
2022-10-28T06:50:35.442Z,1053.29
2022-10-28T06:51:35.442Z,1053.33
2022-10-28T06:52:35.520Z,1053.7
2022-10-28T06:53:35.463Z,1053.57
2022-10-28T06:54:35.450Z,1054.07
2022-10-28T06:55:35.476Z,1054.01
2022-10-28T06:56:35.461Z,1054.76
2022-10-28T06:57:35.458Z,1054.84
2022-10-28T06:58:35.460Z,1055.1
2022-10-28T06:59:35.462Z,1055.46
2022-10-28T07:00:35.489Z,1055.47
2022-10-28T07:01:35.529Z,1055.93
2022-10-28T07:02:35.577Z,1056.12
2022-10-28T07:03:35.478Z,1056.46
2022-10-28T07:04:35.476Z,1056.09
2022-10-28T07:05:35.480Z,1055.95
2022-10-28T07:06:35.483Z,1055.91
2022-10-28T07:07:35.485Z,1055.81
2022-10-28T07:08:35.486Z,1056.2
2022-10-28T07:09:35.489Z,1056.67
2022-10-28T07:10:35.488Z,1057.33
2022-10-28T07:11:35.516Z,1058.05
2022-10-28T07:12:35.499Z,1058.89
2022-10-28T07:13:35.500Z,1059.61
2022-10-28T07:14:35.511Z,1060.32
2022-10-28T07:15:35.501Z,1061.08
2022-10-28T07:16:35.518Z,1061.52
2022-10-28T07:17:35.512Z,1062.22
2022-10-28T07:18:35.509Z,1062.81
2022-10-28T07:19:35.520Z,1063.47
2022-10-28T07:20:35.516Z,1064.42
2022-10-28T07:21:35.519Z,1064.62
2022-10-28T07:22:35.522Z,1065.19
2022-10-28T07:23:35.522Z,1065.52
2022-10-28T07:24:35.526Z,1066.25
2022-10-28T07:25:35.528Z,1066.33
2022-10-28T07:26:35.533Z,1067.06
2022-10-28T07:27:35.559Z,1067.48
2022-10-28T07:28:35.531Z,1067.92
2022-10-28T07:29:35.534Z,1068.34
2022-10-28T07:30:35.536Z,1068.91
2022-10-28T07:31:35.541Z,1069.62
2022-10-28T07:32:35.540Z,1070.55
2022-10-28T07:33:35.541Z,1071.08
2022-10-28T07:34:35.556Z,1071.87
2022-10-28T07:35:38.561Z,1072.49
2022-10-28T07:36:35.554Z,1073.01
2022-10-28T07:37:35.558Z,1074.05
2022-10-28T07:38:35.557Z,1074.75
2022-10-28T07:40:35.560Z,1076.37
2022-10-28T07:41:35.568Z,1077.03
2022-10-28T07:42:35.560Z,1077.39
2022-10-28T07:43:35.593Z,1077.88
2022-10-28T07:44:35.564Z,1078.56
2022-10-28T07:45:35.567Z,1079.61
2022-10-28T07:46:36.691Z,1080.34
2022-10-28T07:47:35.568Z,1081.42
2022-10-28T07:48:35.574Z,1082.21
2022-10-28T07:49:35.600Z,1083.02
2022-10-28T07:50:35.583Z,1084.43
2022-10-28T07:51:35.575Z,1086.67
2022-10-28T07:52:35.576Z,1089.3
2022-10-28T07:53:35.584Z,1092.83
2022-10-28T07:54:35.604Z,1095.94
2022-10-28T07:55:35.584Z,1100.33
2022-10-28T07:56:35.580Z,1103.25
2022-10-28T07:57:38.442Z,1104.77
2022-10-28T07:58:35.584Z,1105.88
2022-10-28T07:59:35.640Z,1107
2022-10-28T08:00:35.742Z,1108.15
2022-10-28T08:01:35.851Z,1109.82
2022-10-28T08:02:35.590Z,1110.98
2022-10-28T08:03:38.793Z,1112.01
2022-10-28T08:04:35.606Z,1112.81
2022-10-28T08:05:35.589Z,1113.85
2022-10-28T08:06:35.585Z,1114.77
2022-10-28T08:07:37.670Z,1115.6
2022-10-28T08:08:38.672Z,1116.56
2022-10-28T08:09:35.649Z,1117.35
2022-10-28T08:10:35.583Z,1118.24
2022-10-28T08:11:35.619Z,1118.99
2022-10-28T08:12:35.584Z,1119.73
2022-10-28T08:13:37.969Z,1120.86
2022-10-28T08:14:35.602Z,1121.8
2022-10-28T08:15:35.610Z,1122.44
2022-10-28T08:16:35.586Z,1122.93
2022-10-28T08:17:35.582Z,1123.4
2022-10-28T08:18:35.582Z,1123.6
2022-10-28T08:19:35.608Z,1123.92
2022-10-28T08:20:35.582Z,1123.86
2022-10-28T08:21:35.599Z,1124.24
2022-10-28T08:22:35.585Z,1124.62
2022-10-28T08:23:35.590Z,1125
2022-10-28T08:24:35.607Z,1125.38
2022-10-28T08:25:35.590Z,1125.9
2022-10-28T08:26:35.620Z,1126.17
2022-10-28T08:27:35.593Z,1126.23
2022-10-28T08:28:35.603Z,1126.3
2022-10-28T08:29:35.629Z,1126.5
2022-10-28T08:30:44.957Z,1126.54
2022-10-28T08:31:35.625Z,1126.99
2022-10-28T08:32:35.599Z,1127.34
2022-10-28T08:33:35.604Z,1127.5
2022-10-28T08:34:36.852Z,1127.72
2022-10-28T08:35:35.607Z,1127.85
2022-10-28T08:36:35.611Z,1128.02
2022-10-28T08:37:35.713Z,1128.16
2022-10-28T08:38:35.614Z,1128.2
2022-10-28T08:39:36.123Z,1128.21
2022-10-28T08:40:38.705Z,1128.3
2022-10-28T08:41:35.644Z,1128.3
2022-10-28T08:42:35.620Z,1128.26
2022-10-28T08:43:52.727Z,1128.26
2022-10-28T08:44:35.621Z,1128.25
2022-10-28T08:45:35.691Z,1128.38
2022-10-28T08:46:35.633Z,1128.44
2022-10-28T08:47:35.660Z,1128.59
2022-10-28T08:48:35.638Z,1128.6
2022-10-28T08:49:35.632Z,1128.9
2022-10-28T08:50:35.654Z,1129.22
2022-10-28T08:51:35.669Z,1129.75
2022-10-28T08:52:35.713Z,1130.33
2022-10-28T08:53:35.640Z,1130.74
2022-10-28T08:54:35.651Z,1131.22
2022-10-28T08:55:35.653Z,1131.71
2022-10-28T08:56:35.698Z,1132.17
2022-10-28T08:57:35.655Z,1132.59
2022-10-28T08:58:35.738Z,1133.08
2022-10-28T08:59:35.653Z,1133.55
2022-10-28T09:00:35.658Z,1134.18
2022-10-28T09:01:35.854Z,1134.8
2022-10-28T09:02:35.704Z,1135.1
2022-10-28T09:03:36.839Z,1135.36
2022-10-28T09:04:35.693Z,1135.68
2022-10-28T09:05:35.672Z,1136.08
2022-10-28T09:06:35.702Z,1136.53
2022-10-28T09:07:35.666Z,1137.16
2022-10-28T09:08:35.706Z,1137.63
2022-10-28T09:09:35.667Z,1137.99
2022-10-28T09:10:35.669Z,1138.44
2022-10-28T09:11:35.677Z,1138.69
2022-10-28T09:12:35.674Z,1139.29
2022-10-28T09:13:35.682Z,1139.65
2022-10-28T09:14:35.679Z,1140.11
2022-10-28T09:15:35.741Z,1140.43
2022-10-28T09:16:35.683Z,1140.74
2022-10-28T09:17:35.686Z,1140.9
2022-10-28T09:18:35.684Z,1140.92
2022-10-28T09:19:35.712Z,1140.72
2022-10-28T09:20:35.690Z,1140.29
2022-10-28T09:21:35.693Z,1139.78
2022-10-28T09:22:35.794Z,1139.33
2022-10-28T09:23:35.696Z,1138.96
2022-10-28T09:24:35.698Z,1138.21
2022-10-28T09:25:35.704Z,1137.08
2022-10-28T09:26:35.705Z,1136.03
2022-10-28T09:27:35.703Z,1134.82
2022-10-28T09:28:35.707Z,1133.74
2022-10-28T09:29:36.366Z,1132.24
2022-10-28T09:30:35.707Z,1130.71
2022-10-28T09:31:35.729Z,1129.03
2022-10-28T09:32:35.898Z,1127.35
2022-10-28T09:33:35.875Z,1125.56
2022-10-28T09:34:35.716Z,1123.7
2022-10-28T09:35:35.787Z,1122.44
2022-10-28T09:36:35.734Z,1120.68
2022-10-28T09:37:35.717Z,1119.02
2022-10-28T09:38:35.727Z,1117.41
2022-10-28T09:39:35.724Z,1115.6
2022-10-28T09:40:35.726Z,1113.86
2022-10-28T09:41:35.730Z,1113.81
2022-10-28T09:42:35.765Z,1111.93
2022-10-28T09:43:35.733Z,1110.72
2022-10-28T09:44:35.731Z,1109.02
2022-10-28T09:45:35.733Z,1108.09
2022-10-28T09:46:37.012Z,1107.39
2022-10-28T09:47:35.784Z,1107.83
2022-10-28T09:48:35.740Z,1108.81
2022-10-28T09:49:35.744Z,1109.59
2022-10-28T09:50:35.768Z,1109.97
2022-10-28T09:51:35.775Z,1109.78
2022-10-28T09:52:35.749Z,1110.45
2022-10-28T09:53:36.236Z,1110.77
2022-10-28T09:54:35.753Z,1111.75
2022-10-28T09:55:35.752Z,1112.53
2022-10-28T09:56:35.765Z,1110.63
2022-10-28T09:57:35.758Z,1108.9
2022-10-28T09:58:35.771Z,1108.34
2022-10-28T09:59:35.764Z,1109.37
2022-10-28T10:00:35.769Z,1111.02
2022-10-28T10:01:35.812Z,1111.66
2022-10-28T10:02:38.666Z,1110.84
2022-10-28T10:03:35.772Z,1111.5
2022-10-28T10:04:35.776Z,1112.85
2022-10-28T10:05:35.773Z,1113.97
2022-10-28T10:06:35.782Z,1115.2
2022-10-28T10:07:36.024Z,1116
2022-10-28T10:08:35.777Z,1115.47
2022-10-28T10:09:35.780Z,1114.34
2022-10-28T10:10:35.783Z,1114.73
2022-10-28T10:11:35.782Z,1113.83
2022-10-28T10:12:35.782Z,1112.44
2022-10-28T10:13:38.861Z,1111.49
2022-10-28T10:14:35.790Z,1110.47
2022-10-28T10:15:35.793Z,1109.54
2022-10-28T10:16:35.795Z,1108.96
2022-10-28T10:17:35.794Z,1108.84
2022-10-28T10:18:35.807Z,1106.42
2022-10-28T10:19:35.796Z,1103.66
2022-10-28T10:20:35.801Z,1101.29
2022-10-28T10:21:35.805Z,1098.9
2022-10-28T10:22:35.812Z,1096.29
2022-10-28T10:23:35.876Z,1093.5
2022-10-28T10:24:38.577Z,1090.72
2022-10-28T10:25:35.834Z,1088.19
2022-10-28T10:26:35.816Z,1085.6
2022-10-28T10:27:35.816Z,1083.01
2022-10-28T10:28:35.818Z,1080.75
2022-10-28T10:29:35.819Z,1078.38
2022-10-28T10:30:35.840Z,1076.44
2022-10-28T10:31:35.821Z,1074.12
2022-10-28T10:32:35.829Z,1071.83
2022-10-28T10:33:35.824Z,1069.72
2022-10-28T10:34:35.824Z,1067.21
2022-10-28T10:35:37.840Z,1064.98
2022-10-28T10:36:35.845Z,1062.83
2022-10-28T10:37:35.852Z,1059.97
2022-10-28T10:38:35.860Z,1057.36
2022-10-28T10:39:35.858Z,1054.52
2022-10-28T10:40:35.838Z,1052.22
2022-10-28T10:41:35.846Z,1049.7
2022-10-28T10:42:39.174Z,1046.94
2022-10-28T10:43:35.840Z,1047.81
2022-10-28T10:44:35.844Z,1050.84
2022-10-28T10:45:35.848Z,1053.99
2022-10-28T10:46:35.851Z,1057.26
2022-10-28T10:47:35.851Z,1059.54
2022-10-28T10:48:35.857Z,1062.36
2022-10-28T10:49:35.854Z,1065.54
2022-10-28T10:50:35.862Z,1069.26
2022-10-28T10:51:37.441Z,1072.33
2022-10-28T10:52:35.858Z,1075
2022-10-28T10:53:35.859Z,1077.45
2022-10-28T10:54:35.870Z,1079.46
2022-10-28T10:55:35.890Z,1080.73
2022-10-28T10:56:35.871Z,1082.92
2022-10-28T10:57:35.873Z,1085.02
2022-10-28T10:58:35.868Z,1087.27
2022-10-28T10:59:35.874Z,1089.13
2022-10-28T11:00:35.880Z,1091.02
2022-10-28T11:01:36.001Z,1092.58
2022-10-28T11:02:36.038Z,1093.5
2022-10-28T11:03:35.881Z,1094.42
2022-10-28T11:04:35.883Z,1095.06
2022-10-28T11:05:38.295Z,1095.89
2022-10-28T11:06:35.889Z,1096.47
2022-10-28T11:07:38.900Z,1096.85
2022-10-28T11:08:35.888Z,1097.01
2022-10-28T11:09:35.888Z,1097.28
2022-10-28T11:10:35.894Z,1097.41
2022-10-28T11:11:35.942Z,1097.08
2022-10-28T11:12:35.893Z,1094.73
2022-10-28T11:13:35.904Z,1092.85
2022-10-28T11:14:35.901Z,1092.07
2022-10-28T11:15:35.901Z,1092.05
2022-10-28T11:16:35.905Z,1092.25
2022-10-28T11:17:35.955Z,1092.09
2022-10-28T11:18:38.687Z,1091.95
2022-10-28T11:19:35.921Z,1091.61
2022-10-28T11:20:35.911Z,1091.04
2022-10-28T11:21:35.921Z,1090.59
2022-10-28T11:22:35.917Z,1090.69
2022-10-28T11:23:35.917Z,1090.66
2022-10-28T11:24:35.921Z,1090.84
2022-10-28T11:25:35.929Z,1090.72
2022-10-28T11:26:35.923Z,1090.45
2022-10-28T11:27:35.953Z,1089.97
2022-10-28T11:28:35.925Z,1088.19
2022-10-28T11:29:35.930Z,1085.53
2022-10-28T11:30:35.928Z,1083.44
2022-10-28T11:31:35.952Z,1081.19
2022-10-28T11:32:38.313Z,1078.84
2022-10-28T11:33:37.811Z,1077.39
2022-10-28T11:34:37.432Z,1076.26
2022-10-28T11:35:37.435Z,1074.33
2022-10-28T11:36:37.440Z,1073.25
2022-10-28T11:37:37.443Z,1072.7
2022-10-28T11:38:38.403Z,1072.03
2022-10-28T11:39:37.446Z,1071.94
2022-10-28T11:40:40.451Z,1071.35
2022-10-28T11:41:37.444Z,1071.37
2022-10-28T11:42:37.446Z,1070.8
2022-10-28T11:43:37.479Z,1070.28
2022-10-28T11:44:37.450Z,1069.57
2022-10-28T11:45:37.457Z,1067.75
2022-10-28T11:46:37.504Z,1066.09
2022-10-28T11:47:37.458Z,1064.75
2022-10-28T11:48:37.461Z,1063.76
2022-10-28T11:49:37.460Z,1063.07
2022-10-28T11:50:37.473Z,1062.06
2022-10-28T11:51:37.490Z,1061.67
2022-10-28T11:52:41.241Z,1061.93
2022-10-28T11:53:37.469Z,1062.25
2022-10-28T11:54:37.480Z,1062.87
2022-10-28T11:55:37.491Z,1063.29
2022-10-28T11:56:37.502Z,1062.23
2022-10-28T11:57:37.475Z,1060.86
2022-10-28T11:58:37.481Z,1059.66
2022-10-28T11:59:37.505Z,1058.61
2022-10-28T12:00:37.486Z,1057.17
2022-10-28T12:01:37.611Z,1055.56
2022-10-28T12:02:37.518Z,1053.86
2022-10-28T12:03:37.489Z,1051.79
2022-10-28T12:04:37.517Z,1049.79
2022-10-28T12:05:37.489Z,1048.45
2022-10-28T12:06:40.517Z,1046.58
2022-10-28T12:07:37.494Z,1045.32
2022-10-28T12:08:37.497Z,1043.69
2022-10-28T12:09:37.504Z,1042.23
2022-10-28T12:10:37.511Z,1040.3